createdAt,value
2018-07-25T00:02:55.092Z,66.00
2018-07-25T00:08:03.376Z,66.60
2018-07-25T00:13:07.323Z,66.40
2018-07-25T00:18:11.483Z,66.50
2018-07-25T00:23:17.868Z,66.40
2018-07-25T00:28:24.146Z,66.50
2018-07-25T00:33:26.975Z,66.80
2018-07-25T00:38:31.682Z,66.70
2018-07-25T00:43:37.204Z,66.90
2018-07-25T00:48:42.115Z,66.70
2018-07-25T00:53:46.336Z,67.10
2018-07-25T00:58:53.616Z,67.10
2018-07-25T01:03:58.452Z,67.50
2018-07-25T01:09:04.208Z,67.60
2018-07-25T01:14:12.660Z,67.70
2018-07-25T01:19:17.220Z,68.00
2018-07-25T01:24:21.895Z,67.90
2018-07-25T01:29:27.789Z,67.90
2018-07-25T01:34:32.188Z,67.90
2018-07-25T01:39:35.968Z,68.10
2018-07-25T01:44:39.557Z,68.00
2018-07-25T01:49:44.001Z,68.00
2018-07-25T01:54:49.147Z,68.10
2018-07-25T01:59:53.282Z,68.90
2018-07-25T02:04:57.473Z,68.90
2018-07-25T02:10:02.240Z,68.80
2018-07-25T02:15:05.402Z,68.70
2018-07-25T02:20:10.180Z,69.00
2018-07-25T02:25:13.168Z,69.20
2018-07-25T02:30:18.817Z,69.20
2018-07-25T02:35:24.173Z,69.60
2018-07-25T02:40:28.176Z,69.50
2018-07-25T02:45:32.555Z,69.80
2018-07-25T02:50:35.679Z,69.70
2018-07-25T02:55:39.192Z,70.00
2018-07-25T03:00:45.465Z,70.10
2018-07-25T03:05:51.573Z,70.10
2018-07-25T03:10:59.137Z,70.20
2018-07-25T03:16:04.099Z,70.30
2018-07-25T03:21:11.769Z,70.40
2018-07-25T03:26:16.034Z,70.60
2018-07-25T03:31:18.858Z,70.30
2018-07-25T03:36:22.608Z,70.70
2018-07-25T03:41:28.284Z,70.80
2018-07-25T03:46:31.533Z,71.00
2018-07-25T03:51:36.705Z,71.00
2018-07-25T03:56:40.919Z,71.30
2018-07-25T04:01:45.214Z,71.10
2018-07-25T04:06:50.949Z,71.50
2018-07-25T04:11:54.627Z,71.70
2018-07-25T04:16:57.981Z,72.00
2018-07-25T04:22:01.791Z,71.90
2018-07-25T04:27:07.423Z,72.00
2018-07-25T04:32:10.783Z,72.60
2018-07-25T04:37:15.277Z,73.00
2018-07-25T04:42:22.761Z,72.80
2018-07-25T04:47:25.520Z,72.80
2018-07-25T04:52:30.127Z,73.40
2018-07-25T04:57:35.452Z,72.60
2018-07-25T05:02:40.114Z,73.00
2018-07-25T05:07:43.497Z,72.90
2018-07-25T05:12:46.375Z,73.10
2018-07-25T05:17:50.026Z,73.30
2018-07-25T05:22:52.683Z,73.40
2018-07-25T05:27:55.427Z,73.60
2018-07-25T05:32:58.437Z,73.60
2018-07-25T05:38:01.548Z,74.00
2018-07-25T05:43:04.182Z,73.90
2018-07-25T05:48:07.737Z,73.30
2018-07-25T05:53:12.874Z,74.10
2018-07-25T05:58:15.670Z,74.80
2018-07-25T06:03:18.445Z,74.20
2018-07-25T06:08:25.311Z,74.40
2018-07-25T06:13:28.680Z,75.00
2018-07-25T06:18:31.389Z,74.90
2018-07-25T06:23:34.727Z,74.20
2018-07-25T06:28:40.431Z,74.20
2018-07-25T06:33:44.966Z,74.00
2018-07-25T06:38:49.387Z,72.10
2018-07-25T06:43:52.707Z,71.30
2018-07-25T06:48:55.561Z,69.80
2018-07-25T06:53:58.364Z,67.90
2018-07-25T06:59:01.344Z,67.70
2018-07-25T07:04:04.859Z,67.50
2018-07-25T07:09:07.642Z,66.50
2018-07-25T07:14:11.169Z,66.80
2018-07-25T07:19:15.322Z,65.80
2018-07-25T07:24:18.562Z,64.60
2018-07-25T07:29:23.638Z,64.30
2018-07-25T07:34:28.062Z,63.40
2018-07-25T07:39:31.326Z,62.70
2018-07-25T07:44:34.120Z,62.20
2018-07-25T07:49:38.106Z,59.90
2018-07-25T07:54:42.040Z,59.90
2018-07-25T07:59:45.301Z,59.90
2018-07-25T08:04:48.200Z,59.40
2018-07-25T08:09:51.682Z,58.70
2018-07-25T08:14:55.130Z,56.70
2018-07-25T08:19:59.668Z,56.40
2018-07-25T08:25:02.443Z,56.20
2018-07-25T08:30:05.264Z,55.90
2018-07-25T08:35:08.727Z,56.80
2018-07-25T08:40:13.377Z,55.30
2018-07-25T08:45:16.170Z,52.50
2018-07-25T08:50:19.930Z,53.80
2018-07-25T08:55:24.654Z,51.20
2018-07-25T09:00:28.896Z,51.10
2018-07-25T09:05:31.600Z,49.60
2018-07-25T09:10:34.538Z,51.40
2018-07-25T09:15:38.973Z,51.20
2018-07-25T09:20:45.675Z,51.10
2018-07-25T09:25:48.439Z,50.80
2018-07-25T09:30:51.384Z,49.50
2018-07-25T09:35:54.105Z,49.50
2018-07-25T09:40:58.044Z,47.80
2018-07-25T09:46:02.355Z,46.50
2018-07-25T09:51:06.903Z,46.70
2018-07-25T09:56:11.977Z,47.20
2018-07-25T10:01:15.375Z,47.20
2018-07-25T10:06:20.122Z,44.20
2018-07-25T10:11:23.590Z,45.10
2018-07-25T10:16:31.143Z,43.80
2018-07-25T10:21:37.724Z,44.30
2018-07-25T10:26:42.689Z,43.70
2018-07-25T10:31:45.835Z,43.10
2018-07-25T10:36:49.622Z,43.50
2018-07-25T10:41:56.244Z,43.40
2018-07-25T10:46:59.992Z,43.50
2018-07-25T10:52:05.234Z,42.50
2018-07-25T10:57:09.909Z,40.50
2018-07-25T11:02:16.260Z,41.80
2018-07-25T11:07:23.611Z,44.70
2018-07-25T11:12:30.914Z,43.80
2018-07-25T11:17:34.653Z,42.40
2018-07-25T11:22:39.966Z,41.60
2018-07-25T11:27:44.884Z,43.40
2018-07-25T11:32:49.975Z,42.10
2018-07-25T11:37:53.650Z,42.90
2018-07-25T11:43:00.271Z,42.30
2018-07-25T11:48:03.959Z,40.00
2018-07-25T11:53:09.358Z,42.20
2018-07-25T11:58:13.983Z,42.50
2018-07-25T12:03:18.649Z,40.90
2018-07-25T12:08:22.599Z,40.40
2018-07-25T12:13:29.384Z,40.30
2018-07-25T12:18:37.373Z,40.40
2018-07-25T12:23:41.199Z,40.30
2018-07-25T12:28:46.060Z,41.90
2018-07-25T12:33:49.759Z,42.00
2018-07-25T12:38:56.517Z,41.80
2018-07-25T12:44:01.813Z,42.20
2018-07-25T12:49:05.285Z,41.50
2018-07-25T12:54:11.648Z,42.10
2018-07-25T12:59:16.319Z,42.80
2018-07-25T13:04:29.034Z,43.90
2018-07-25T13:09:33.543Z,44.10
2018-07-25T13:14:37.905Z,43.60
2018-07-25T13:19:41.768Z,44.10
2018-07-25T13:24:46.720Z,43.50
2018-07-25T13:29:53.541Z,43.30
2018-07-25T13:34:58.408Z,44.00
2018-07-25T13:40:04.712Z,44.50
2018-07-25T13:45:09.207Z,44.20
2018-07-25T13:50:16.299Z,43.80
2018-07-25T13:55:24.585Z,44.40
2018-07-25T14:00:29.626Z,44.80
2018-07-25T14:05:37.148Z,44.60
2018-07-25T14:10:41.918Z,44.50
2018-07-25T14:15:46.367Z,44.90
2018-07-25T14:20:54.765Z,44.70
2018-07-25T14:31:11.179Z,43.90
2018-07-25T14:36:15.865Z,43.70
2018-07-25T14:41:19.566Z,42.90
2018-07-25T14:46:26.480Z,41.90
2018-07-25T14:51:31.400Z,41.50
2018-07-25T14:56:36.598Z,40.40
2018-07-25T15:01:41.290Z,40.50
2018-07-25T15:06:50.305Z,42.40
2018-07-25T15:11:56.678Z,42.30
2018-07-25T15:17:02.310Z,43.10
2018-07-25T15:22:06.700Z,42.70
2018-07-25T15:27:09.798Z,42.90
2018-07-25T15:32:13.528Z,43.10
2018-07-25T15:37:16.341Z,43.30
2018-07-25T15:42:18.934Z,43.30
2018-07-25T15:47:21.767Z,42.00
2018-07-25T15:52:24.297Z,42.40
2018-07-25T15:57:26.971Z,42.60
2018-07-25T16:02:30.159Z,43.20
2018-07-25T16:07:32.814Z,41.80
2018-07-25T16:12:35.485Z,42.40
2018-07-25T16:17:38.066Z,41.40
2018-07-25T16:22:40.614Z,41.90
2018-07-25T16:27:43.464Z,41.80
2018-07-25T16:32:46.196Z,42.70
2018-07-25T16:43:47.372Z,44.30
2018-07-25T16:48:49.833Z,44.70
2018-07-25T16:53:52.321Z,44.90
2018-07-25T16:58:54.809Z,44.90
2018-07-25T17:03:57.304Z,45.00
2018-07-25T17:08:59.798Z,45.30
2018-07-25T17:14:02.298Z,45.90
2018-07-25T17:19:04.845Z,46.20
2018-07-25T17:24:07.327Z,46.40
2018-07-25T17:29:09.798Z,46.90
2018-07-25T17:34:12.278Z,47.10
2018-07-25T17:39:14.762Z,47.50
2018-07-25T17:44:17.285Z,47.70
2018-07-25T17:49:19.789Z,48.20
2018-07-25T17:54:22.277Z,48.40
2018-07-25T17:59:24.752Z,48.70
2018-07-25T18:04:27.237Z,49.10
2018-07-25T18:09:29.718Z,49.60
2018-07-25T18:14:32.201Z,50.30
2018-07-25T18:19:34.689Z,51.20
2018-07-25T18:24:37.181Z,50.60
2018-07-25T18:29:39.660Z,51.60
2018-07-25T18:34:42.141Z,56.70
2018-07-25T18:39:44.633Z,56.00
2018-07-25T18:44:47.122Z,56.60
2018-07-25T18:49:49.773Z,57.30
2018-07-25T18:54:52.269Z,55.80
2018-07-25T18:59:54.732Z,54.10
2018-07-25T19:04:58.041Z,51.70
2018-07-25T19:10:00.617Z,53.30
2018-07-25T19:15:19.533Z,55.70
2018-07-25T19:20:22.173Z,55.60
2018-07-25T19:25:24.687Z,57.40
2018-07-25T19:30:27.160Z,56.70
2018-07-25T19:35:29.686Z,57.60
2018-07-25T19:40:32.924Z,59.40
2018-07-25T19:45:36.221Z,59.30
2018-07-25T19:50:39.469Z,59.70
2018-07-25T19:55:41.953Z,59.70
2018-07-25T20:00:45.025Z,60.40
2018-07-25T20:05:47.493Z,60.60
2018-07-25T20:10:49.954Z,61.00
2018-07-25T20:15:56.318Z,61.50
2018-07-25T20:20:59.630Z,61.30
2018-07-25T20:26:02.230Z,61.80
2018-07-25T20:31:05.550Z,61.90
2018-07-25T20:36:08.034Z,61.80
2018-07-25T20:41:10.549Z,62.30
2018-07-25T20:46:13.024Z,62.60
2018-07-25T20:51:15.509Z,62.50
2018-07-25T20:56:18.005Z,63.00
2018-07-25T21:01:20.484Z,63.60
2018-07-25T21:06:23.025Z,63.70
2018-07-25T21:11:25.510Z,64.00
2018-07-25T21:16:27.991Z,64.10
2018-07-25T21:21:30.525Z,64.10
2018-07-25T21:26:33.002Z,63.90
2018-07-25T21:31:35.517Z,64.70
2018-07-25T21:36:38.760Z,65.50
2018-07-25T21:41:41.241Z,65.40
2018-07-25T21:46:44.396Z,65.20
2018-07-25T21:51:47.652Z,66.90
2018-07-25T21:56:50.878Z,66.10
2018-07-25T22:01:53.349Z,66.10
2018-07-25T22:06:55.887Z,66.60
2018-07-25T22:11:58.473Z,66.30
2018-07-25T22:17:01.285Z,66.90
2018-07-25T22:22:03.875Z,66.80
2018-07-25T22:27:07.121Z,66.10
2018-07-25T22:32:09.697Z,66.10
2018-07-25T22:37:12.307Z,66.30
2018-07-25T22:42:15.626Z,66.20
2018-07-25T22:47:18.101Z,66.00
2018-07-25T22:52:20.905Z,65.80
2018-07-25T22:57:23.406Z,66.00
2018-07-25T23:02:25.891Z,66.10
2018-07-25T23:07:28.406Z,66.00
2018-07-25T23:12:31.714Z,66.80
2018-07-25T23:17:34.962Z,67.00
2018-07-25T23:22:37.525Z,67.00
2018-07-25T23:27:40.013Z,66.60
2018-07-25T23:32:42.492Z,67.00
2018-07-25T23:37:44.969Z,67.20
2018-07-25T23:42:47.523Z,67.20
2018-07-25T23:47:49.978Z,67.30
2018-07-25T23:52:52.450Z,67.30
2018-07-25T23:57:54.932Z,67.00
